CheckWX is a tool to help pilots better visualize weather data.  It is not intended as a substitute for an official pre-flight weather briefing.

19:28:41 UTC

KESN METAR
Easton / Newnam Field Airport
Easton, Maryland, USA
Current

39 mins ago

KESN 201850Z 29015G23KT 10SM SKC 13/02 A3005
Observed
Nov-20 @ 18:50 UTC
Wind
  • 290° at 15 KTS
  • Gusting to 23 KTS
Visibility
10 SM
Flight Rules
VFR
Cloud Levels
  • Clear skies
Temperature
13°C / 55°F
Dewpoint
C / 36°F
Humidity
47%
Altimeter
30.05" Hg
Pressure
1017.62 hPa
Previous

2 hours ago

KESN 201750Z 30017G23KT 10SM SCT038 12/02 A3005
Observed
Nov-20 @ 17:50 UTC
Wind
  • 300° at 17 KTS
  • Gusting to 23 KTS
Visibility
10 SM
Flight Rules
VFR
Cloud Levels
  • Scattered at 3,800' AGL
Temperature
12°C / 54°F
Dewpoint
C / 36°F
Humidity
51%
Altimeter
30.05" Hg
Pressure
1017.62 hPa
Previous

3 hours ago

KESN 201650Z 29011G17KT 10SM SKC 11/03 A3006
Observed
Nov-20 @ 16:50 UTC
Wind
  • 290° at 11 KTS
  • Gusting to 17 KTS
Visibility
10 SM
Flight Rules
VFR
Cloud Levels
  • Clear skies
Temperature
11°C / 52°F
Dewpoint
C / 37°F
Humidity
58%
Altimeter
30.06" Hg
Pressure
1017.92 hPa